CheckWX is a tool to help pilots better visualize weather data.  It is not intended as a substitute for an official pre-flight weather briefing.

23:48:48 UTC

12N METAR
Aeroflex-Andover Airport
Andover, New Jersey, USA
Current

55 mins ago

K12N 222254Z AUTO 00000KT 15/14 A2985 RMK AO1 SLP109 P0005 T01500139
Observed
Oct-22 @ 22:54 UTC
Visibility
Temperature
15°C / 59°F
Dewpoint
14°C / 57°F
Humidity
94%
Altimeter
29.85" Hg
Pressure
1010.82 hPa
Current Rain
0.05"
Previous

2 hours ago

K12N 222154Z AUTO 00000KT 15/14 A2986 RMK AO1 SLP111 P0001 T01500139
Observed
Oct-22 @ 21:54 UTC
Visibility
Temperature
15°C / 59°F
Dewpoint
14°C / 57°F
Humidity
94%
Altimeter
29.86" Hg
Pressure
1011.22 hPa
Current Rain
0.01"
Previous

3 hours ago

K12N 222054Z AUTO 00000KT 14/13 A2987 RMK AO1 SLP115 T01440133 56015
Observed
Oct-22 @ 20:54 UTC
Visibility
Temperature
14°C / 57°F
Dewpoint
13°C / 55°F
Humidity
94%
Altimeter
29.87" Hg
Pressure
1011.52 hPa